createdAt,value
2019-01-22T00:00:21.271Z,35.05
2019-01-22T00:02:49.767Z,37.63
2019-01-22T00:05:18.257Z,40.23
2019-01-22T00:07:46.699Z,41.37
2019-01-22T00:10:15.767Z,46.80
2019-01-22T00:12:44.192Z,42.90
2019-01-22T00:15:13.544Z,38.42
2019-01-22T00:17:42.439Z,44.13
2019-01-22T00:20:13.835Z,38.75
2019-01-22T00:22:42.330Z,42.80
2019-01-22T00:25:12.680Z,42.03
2019-01-22T00:27:41.160Z,40.55
2019-01-22T00:30:18.314Z,40.05
2019-01-22T00:32:46.737Z,36.90
2019-01-22T00:35:15.238Z,38.63
2019-01-22T00:37:43.720Z,36.00
2019-01-22T00:40:14.992Z,36.90
2019-01-22T00:42:43.892Z,36.45
2019-01-22T00:45:12.753Z,38.25
2019-01-22T00:47:41.184Z,35.30
2019-01-22T00:50:15.280Z,37.13
2019-01-22T00:52:43.716Z,37.05
2019-01-22T00:55:15.526Z,35.28
2019-01-22T00:57:44.259Z,37.13
2019-01-22T01:00:18.484Z,37.10
2019-01-22T01:02:46.966Z,37.88
2019-01-22T01:05:15.536Z,36.58
2019-01-22T01:07:44.504Z,35.35
2019-01-22T01:10:14.180Z,34.48
2019-01-22T01:12:42.664Z,33.75
2019-01-22T01:15:13.336Z,36.38
2019-01-22T01:17:44.034Z,35.63
2019-01-22T01:20:18.090Z,36.35
2019-01-22T01:22:46.523Z,32.30
2019-01-22T01:25:17.768Z,37.05
2019-01-22T01:27:46.253Z,38.02
2019-01-22T01:30:17.432Z,39.20
2019-01-22T01:32:45.846Z,37.00
2019-01-22T01:35:14.470Z,34.58
2019-01-22T01:37:45.981Z,35.50
2019-01-22T01:40:16.461Z,34.40
2019-01-22T01:42:44.881Z,37.25
2019-01-22T01:45:14.748Z,36.33
2019-01-22T01:47:43.680Z,35.05
2019-01-22T01:50:15.260Z,35.15
2019-01-22T01:52:43.686Z,37.50
2019-01-22T01:55:14.671Z,35.17
2019-01-22T01:57:43.085Z,36.68
2019-01-22T02:00:16.945Z,35.13
2019-01-22T02:02:45.431Z,35.78
2019-01-22T02:05:13.963Z,35.92
2019-01-22T02:07:42.528Z,35.03
2019-01-22T02:10:13.979Z,36.17
2019-01-22T02:12:48.230Z,34.10
2019-01-22T02:15:22.325Z,34.27
2019-01-22T02:18:11.472Z,33.18
2019-01-22T02:20:49.068Z,34.88
2019-01-22T02:23:43.141Z,32.98
2019-01-22T02:26:29.695Z,33.30
2019-01-22T02:29:06.805Z,32.88
2019-01-22T02:31:54.902Z,32.73
2019-01-22T02:34:26.802Z,34.88
2019-01-22T02:37:00.881Z,32.25
2019-01-22T02:39:47.410Z,33.40
2019-01-22T02:42:21.466Z,30.88
2019-01-22T02:45:10.293Z,32.60
2019-01-22T02:47:44.463Z,31.93
2019-01-22T02:50:25.020Z,39.25
2019-01-22T02:53:08.176Z,34.65
2019-01-22T02:55:51.544Z,30.45
2019-01-22T02:58:32.133Z,31.50
2019-01-22T03:01:15.532Z,30.62
2019-01-22T03:04:05.199Z,34.13
2019-01-22T03:06:42.331Z,32.30
2019-01-22T03:09:25.848Z,31.57
2019-01-22T03:11:57.817Z,29.40
2019-01-22T03:14:44.190Z,31.25
2019-01-22T03:17:21.528Z,28.83
2019-01-22T03:19:53.321Z,32.03
2019-01-22T03:22:39.744Z,29.70
2019-01-22T03:25:11.325Z,28.02
2019-01-22T03:27:58.005Z,30.08
2019-01-22T03:30:29.528Z,28.32
2019-01-22T03:33:12.964Z,29.67
2019-01-22T03:35:47.091Z,27.73
2019-01-22T03:38:24.708Z,26.97
2019-01-22T03:41:28.240Z,27.55
2019-01-22T03:44:14.886Z,26.85
2019-01-22T03:46:52.116Z,29.60
2019-01-22T03:49:26.695Z,29.42
2019-01-22T03:52:06.941Z,26.60
2019-01-22T03:54:44.299Z,26.25
2019-01-22T03:57:22.273Z,26.97
2019-01-22T03:59:51.741Z,28.47
2019-01-22T04:02:20.348Z,25.52
2019-01-22T04:04:48.766Z,26.75
2019-01-22T04:07:17.204Z,26.42
2019-01-22T04:09:46.358Z,27.07
2019-01-22T04:12:14.894Z,27.15
2019-01-22T04:14:43.430Z,28.10
2019-01-22T04:17:11.893Z,27.65
2019-01-22T04:19:40.304Z,28.17
2019-01-22T04:22:11.279Z,27.10
2019-01-22T04:24:51.661Z,28.27
2019-01-22T04:27:31.883Z,28.00
2019-01-22T04:30:15.610Z,27.15
2019-01-22T04:33:01.506Z,26.12
2019-01-22T04:35:32.999Z,26.52
2019-01-22T04:38:17.591Z,26.33
2019-01-22T04:40:51.815Z,25.60
2019-01-22T04:43:29.590Z,27.10
2019-01-22T04:46:13.648Z,25.60
2019-01-22T04:48:57.124Z,23.73
2019-01-22T04:51:34.519Z,26.75
2019-01-22T04:54:20.848Z,23.47
2019-01-22T04:57:09.124Z,24.43
2019-01-22T04:59:46.400Z,23.38
2019-01-22T05:02:37.341Z,25.43
2019-01-22T05:05:29.319Z,26.80
2019-01-22T05:08:18.865Z,26.95
2019-01-22T05:10:55.965Z,27.20
2019-01-22T05:13:30.157Z,26.52
2019-01-22T05:16:29.022Z,26.12
2019-01-22T05:19:03.495Z,24.70
2019-01-22T05:21:47.049Z,25.75
2019-01-22T05:24:30.198Z,27.45
2019-01-22T05:27:26.066Z,24.47
2019-01-22T05:29:57.572Z,28.75
2019-01-22T05:32:41.433Z,25.92
2019-01-22T05:35:12.944Z,26.87
2019-01-22T05:37:59.640Z,27.02
2019-01-22T05:40:54.949Z,24.23
2019-01-22T05:43:46.777Z,25.70
2019-01-22T05:46:23.979Z,26.70
2019-01-22T05:49:01.423Z,25.08
2019-01-22T05:51:38.864Z,27.40
2019-01-22T05:54:16.387Z,23.20
2019-01-22T05:56:50.951Z,24.87
2019-01-22T05:59:43.812Z,23.92
2019-01-22T06:02:14.488Z,23.10
2019-01-22T06:04:55.149Z,31.40
2019-01-22T06:07:29.601Z,32.73
2019-01-22T06:10:33.170Z,24.27
2019-01-22T06:13:13.681Z,28.70
2019-01-22T06:15:57.260Z,32.55
2019-01-22T06:18:37.424Z,36.55
2019-01-22T06:21:14.624Z,40.00
2019-01-22T06:24:19.513Z,39.55
2019-01-22T06:26:59.888Z,28.25
2019-01-22T06:29:49.472Z,34.18
2019-01-22T06:32:33.323Z,100.62
2019-01-22T06:35:04.818Z,72.97
2019-01-22T06:37:36.335Z,40.65
2019-01-22T06:40:10.605Z,25.75
2019-01-22T06:42:50.806Z,34.67
2019-01-22T06:45:40.466Z,32.17
2019-01-22T06:48:31.540Z,27.20
2019-01-22T06:51:03.028Z,23.90
2019-01-22T06:53:37.357Z,24.40
2019-01-22T06:56:26.376Z,25.95
2019-01-22T06:59:13.065Z,28.00
2019-01-22T07:01:50.281Z,25.12
2019-01-22T07:04:21.839Z,24.80
2019-01-22T07:07:18.572Z,22.27
2019-01-22T07:09:50.137Z,25.60
2019-01-22T07:12:27.221Z,24.20
2019-01-22T07:15:16.673Z,27.73
2019-01-22T07:18:12.696Z,24.05
2019-01-22T07:20:53.912Z,23.42
2019-01-22T07:23:43.365Z,25.43
2019-01-22T07:26:32.899Z,23.90
2019-01-22T07:29:18.831Z,23.57
2019-01-22T07:31:52.988Z,24.27
2019-01-22T07:34:36.491Z,23.30
2019-01-22T07:37:27.369Z,22.67
2019-01-22T07:40:32.264Z,21.55
2019-01-22T07:43:03.787Z,21.33
2019-01-22T07:46:06.813Z,23.00
2019-01-22T07:48:38.347Z,23.07
2019-01-22T07:51:18.617Z,22.60
2019-01-22T07:53:59.106Z,21.52
2019-01-22T07:56:39.293Z,23.67
2019-01-22T07:59:13.539Z,22.42
2019-01-22T08:02:07.633Z,22.58
2019-01-22T08:04:55.903Z,23.35
2019-01-22T08:07:50.266Z,21.12
2019-01-22T08:10:29.962Z,20.95
2019-01-22T08:13:10.446Z,24.72
2019-01-22T08:15:48.001Z,21.07
2019-01-22T08:18:36.226Z,21.60
2019-01-22T08:21:07.718Z,20.10
2019-01-22T08:23:54.543Z,22.30
2019-01-22T08:26:45.704Z,19.17
2019-01-22T08:29:38.472Z,20.57
2019-01-22T08:32:41.889Z,20.92
2019-01-22T08:35:16.084Z,20.12
2019-01-22T08:38:13.029Z,19.87
2019-01-22T08:41:02.591Z,20.75
2019-01-22T08:43:39.692Z,22.00
2019-01-22T08:46:17.025Z,20.25
2019-01-22T08:48:54.312Z,23.70
2019-01-22T08:51:46.241Z,22.15
2019-01-22T08:54:23.444Z,21.35
2019-01-22T08:57:15.928Z,21.95
2019-01-22T09:00:09.606Z,24.30
2019-01-22T09:02:57.380Z,24.70
2019-01-22T09:05:46.266Z,24.23
2019-01-22T09:08:26.597Z,24.50
2019-01-22T09:11:00.988Z,23.22
2019-01-22T09:13:35.101Z,22.70
2019-01-22T09:16:12.633Z,24.57
2019-01-22T09:18:56.005Z,25.63
2019-01-22T09:21:30.425Z,25.82
2019-01-22T09:24:10.694Z,26.57
2019-01-22T09:26:53.909Z,26.20
2019-01-22T09:29:40.485Z,26.40
2019-01-22T09:32:14.937Z,24.57
2019-01-22T09:34:58.517Z,24.33
2019-01-22T09:37:30.066Z,22.40
2019-01-22T09:39:58.499Z,21.90
2019-01-22T09:42:26.932Z,20.80
2019-01-22T09:44:55.378Z,21.80
2019-01-22T09:47:23.874Z,22.77
2019-01-22T09:49:52.314Z,21.63
2019-01-22T09:52:20.721Z,24.23
2019-01-22T09:54:49.151Z,20.97
2019-01-22T09:57:17.560Z,20.90
2019-01-22T09:59:45.968Z,21.60
2019-01-22T10:02:14.397Z,22.67
2019-01-22T10:04:42.823Z,22.03
2019-01-22T10:07:11.255Z,21.73
2019-01-22T10:09:39.665Z,20.10
2019-01-22T10:12:08.160Z,18.80
2019-01-22T10:14:36.575Z,17.97
2019-01-22T10:17:05.066Z,16.97
2019-01-22T10:19:33.479Z,17.60
2019-01-22T10:22:01.947Z,16.20
2019-01-22T10:24:30.367Z,18.90
2019-01-22T10:26:58.792Z,16.83
2019-01-22T10:29:27.232Z,21.60
2019-01-22T10:31:55.649Z,16.07
2019-01-22T10:34:24.070Z,14.40
2019-01-22T10:36:52.521Z,14.87
2019-01-22T10:39:20.931Z,15.13
2019-01-22T10:41:49.374Z,16.23
2019-01-22T10:44:17.799Z,16.53
2019-01-22T10:46:46.229Z,18.20
2019-01-22T10:49:14.719Z,18.80
2019-01-22T10:51:43.161Z,17.33
2019-01-22T10:54:11.571Z,16.10
2019-01-22T10:56:40.087Z,16.07
2019-01-22T10:59:08.489Z,16.07
2019-01-22T11:01:36.912Z,18.00
2019-01-22T11:04:05.410Z,16.07
2019-01-22T11:06:33.928Z,16.83
2019-01-22T11:09:02.340Z,15.60
2019-01-22T11:11:30.780Z,15.17
2019-01-22T11:13:59.193Z,16.80
2019-01-22T11:16:27.608Z,17.30
2019-01-22T11:18:56.985Z,15.30
2019-01-22T11:21:25.410Z,15.37
2019-01-22T11:23:53.826Z,14.73
2019-01-22T11:26:22.317Z,14.27
2019-01-22T11:28:50.760Z,15.10
2019-01-22T11:31:19.179Z,14.50
2019-01-22T11:33:47.657Z,14.13
2019-01-22T11:36:16.086Z,15.13
2019-01-22T11:38:44.496Z,14.97
2019-01-22T11:41:13.007Z,14.37
2019-01-22T11:43:41.426Z,15.43
2019-01-22T11:46:09.858Z,15.00
2019-01-22T11:48:38.265Z,14.80
2019-01-22T11:51:06.695Z,18.93
2019-01-22T11:53:35.123Z,15.73
2019-01-22T11:56:03.549Z,15.60
2019-01-22T11:58:31.971Z,15.57
2019-01-22T12:01:00.778Z,14.70
2019-01-22T12:03:29.251Z,15.07
2019-01-22T12:05:57.692Z,15.47
2019-01-22T12:08:26.111Z,15.80
2019-01-22T12:10:54.529Z,15.30
2019-01-22T12:13:22.960Z,16.53
2019-01-22T12:15:51.368Z,19.63
2019-01-22T12:18:19.803Z,17.30
2019-01-22T12:20:48.208Z,16.47
2019-01-22T12:23:16.641Z,17.20
2019-01-22T12:25:45.149Z,20.17
2019-01-22T12:28:13.572Z,19.17
2019-01-22T12:30:41.979Z,15.93
2019-01-22T12:33:10.424Z,17.03
2019-01-22T12:35:38.839Z,16.03
2019-01-22T12:38:07.608Z,16.70
2019-01-22T12:40:36.031Z,16.40
2019-01-22T12:43:05.396Z,15.63
2019-01-22T12:45:36.523Z,17.70
2019-01-22T12:48:06.489Z,15.60
2019-01-22T12:50:35.081Z,18.77
2019-01-22T12:53:03.591Z,16.87
2019-01-22T12:55:31.997Z,18.97
2019-01-22T12:58:01.349Z,17.17
2019-01-22T13:00:32.300Z,18.37
2019-01-22T13:03:00.820Z,17.80
2019-01-22T13:05:47.053Z,17.77
2019-01-22T13:08:15.545Z,16.00
2019-01-22T13:10:43.956Z,16.97
2019-01-22T13:13:12.389Z,17.03
2019-01-22T13:15:40.815Z,16.67
2019-01-22T13:18:09.384Z,19.47
2019-01-22T13:20:45.587Z,17.43
2019-01-22T13:23:14.030Z,15.47
2019-01-22T13:25:42.448Z,16.50
2019-01-22T13:28:11.143Z,17.47
2019-01-22T13:30:39.552Z,18.50
2019-01-22T13:33:07.994Z,17.60
2019-01-22T13:35:36.450Z,15.73
2019-01-22T13:38:05.173Z,16.63
2019-01-22T13:40:33.581Z,18.27
2019-01-22T13:43:02.006Z,18.10
2019-01-22T13:45:35.690Z,19.27
2019-01-22T13:48:07.253Z,22.60
2019-01-22T13:50:35.678Z,21.60
2019-01-22T13:53:04.468Z,27.07
2019-01-22T13:55:38.075Z,20.47
2019-01-22T13:58:06.741Z,31.40
2019-01-22T14:00:35.689Z,30.50
2019-01-22T14:03:05.297Z,22.53
2019-01-22T14:05:33.787Z,20.63
2019-01-22T14:08:02.242Z,21.40
2019-01-22T14:10:30.644Z,20.97
2019-01-22T14:12:59.070Z,21.87
2019-01-22T14:15:35.756Z,20.50
2019-01-22T14:18:04.725Z,26.00
2019-01-22T14:20:33.200Z,20.70
2019-01-22T14:23:01.636Z,20.80
2019-01-22T14:25:30.040Z,20.17
2019-01-22T14:27:58.487Z,22.83
2019-01-22T14:30:35.649Z,20.03
2019-01-22T14:33:04.616Z,20.43
2019-01-22T14:35:33.044Z,20.73
2019-01-22T14:38:01.542Z,22.10
2019-01-22T14:40:32.308Z,20.70
2019-01-22T14:43:00.751Z,21.43
2019-01-22T14:45:29.167Z,19.70
2019-01-22T14:47:57.593Z,22.70
2019-01-22T14:50:28.449Z,21.10
2019-01-22T14:52:56.876Z,20.80
2019-01-22T14:55:25.286Z,21.50
2019-01-22T14:57:53.816Z,21.70
2019-01-22T15:00:27.180Z,21.03
2019-01-22T15:02:56.949Z,21.20
2019-01-22T15:05:27.740Z,20.07
2019-01-22T15:07:56.243Z,18.23
2019-01-22T15:10:24.725Z,21.07
2019-01-22T15:12:55.693Z,21.43
2019-01-22T15:15:24.240Z,21.17
2019-01-22T15:17:52.669Z,22.60
2019-01-22T15:20:22.935Z,20.63
2019-01-22T15:22:51.625Z,22.53
2019-01-22T15:25:20.323Z,21.80
2019-01-22T15:27:48.830Z,22.40
2019-01-22T15:30:19.805Z,24.67
2019-01-22T15:32:48.296Z,22.13
2019-01-22T15:35:16.735Z,22.83
2019-01-22T15:37:45.171Z,21.97
2019-01-22T15:40:21.895Z,21.60
2019-01-22T15:42:50.348Z,22.57
2019-01-22T15:45:18.939Z,22.93
2019-01-22T15:47:47.429Z,23.27
2019-01-22T15:50:18.487Z,24.03
2019-01-22T15:52:47.278Z,23.50
2019-01-22T15:55:18.584Z,22.13
2019-01-22T15:57:47.009Z,22.83
2019-01-22T16:00:17.930Z,22.47
2019-01-22T16:02:46.519Z,24.83
2019-01-22T16:05:15.066Z,22.90
2019-01-22T16:07:43.508Z,23.37
2019-01-22T16:10:12.971Z,22.17
2019-01-22T16:12:41.404Z,23.13
2019-01-22T16:15:12.934Z,29.70
2019-01-22T16:17:41.440Z,20.70
2019-01-22T16:20:18.564Z,23.37
2019-01-22T16:22:46.991Z,23.87
2019-01-22T16:25:15.853Z,23.40
2019-01-22T16:27:44.286Z,22.70
2019-01-22T16:30:15.402Z,23.53
2019-01-22T16:32:43.846Z,22.23
2019-01-22T16:35:14.796Z,23.57
2019-01-22T16:37:43.218Z,21.90
2019-01-22T16:40:16.040Z,25.63
2019-01-22T16:42:44.904Z,22.33
2019-01-22T16:45:19.429Z,24.13
2019-01-22T16:47:47.845Z,22.67
2019-01-22T16:50:16.430Z,22.37
2019-01-22T16:52:45.200Z,24.20
2019-01-22T16:55:16.964Z,23.43
2019-01-22T16:57:45.377Z,24.00
2019-01-22T17:00:17.110Z,24.63
2019-01-22T17:02:51.245Z,21.87
2019-01-22T17:05:20.122Z,22.03
2019-01-22T17:07:48.547Z,25.10
2019-01-22T17:10:18.925Z,22.30
2019-01-22T17:12:48.581Z,23.67
2019-01-22T17:15:17.544Z,21.77
2019-01-22T17:17:45.962Z,21.80
2019-01-22T17:20:17.507Z,25.17
2019-01-22T17:22:45.959Z,22.70
2019-01-22T17:25:14.598Z,23.30
2019-01-22T17:27:43.151Z,23.57
2019-01-22T17:30:14.823Z,22.07
2019-01-22T17:32:44.878Z,21.03
2019-01-22T17:35:13.636Z,22.70
2019-01-22T17:37:44.017Z,24.50
2019-01-22T17:40:16.385Z,22.53
2019-01-22T17:42:44.322Z,25.57
2019-01-22T17:45:12.888Z,21.20
2019-01-22T17:47:41.312Z,23.13
2019-01-22T17:50:15.193Z,24.83
2019-01-22T17:52:43.607Z,22.83
2019-01-22T17:55:12.975Z,23.70
2019-01-22T17:57:42.316Z,22.63
2019-01-22T18:00:15.497Z,25.83
2019-01-22T18:02:43.901Z,23.33
2019-01-22T18:05:14.473Z,23.53
2019-01-22T18:07:42.907Z,22.30
2019-01-22T18:10:16.323Z,23.67
2019-01-22T18:12:44.728Z,24.57
2019-01-22T18:15:14.889Z,23.50
2019-01-22T18:17:43.376Z,23.23
2019-01-22T18:20:26.656Z,26.73
2019-01-22T18:22:55.067Z,29.93
2019-01-22T18:25:23.565Z,29.00
2019-01-22T18:27:52.142Z,26.37
2019-01-22T18:30:22.819Z,27.20
2019-01-22T18:32:51.224Z,23.60
2019-01-22T18:35:28.698Z,28.33
2019-01-22T18:37:57.159Z,27.03
2019-01-22T18:40:25.640Z,34.37
2019-01-22T18:42:54.057Z,29.13
2019-01-22T18:45:22.568Z,28.53
2019-01-22T18:47:50.990Z,24.50
2019-01-22T18:50:40.305Z,26.47
2019-01-22T18:53:08.696Z,23.17
2019-01-22T18:55:37.120Z,22.40
2019-01-22T18:58:05.532Z,23.87
2019-01-22T19:00:34.054Z,25.10
2019-01-22T19:03:02.470Z,23.80
2019-01-22T19:05:30.910Z,23.50
2019-01-22T19:07:59.321Z,24.70
2019-01-22T19:10:28.732Z,23.37
2019-01-22T19:12:57.155Z,22.60
2019-01-22T19:15:25.593Z,22.03
2019-01-22T19:17:53.996Z,20.30
2019-01-22T19:20:22.420Z,24.10
2019-01-22T19:22:51.697Z,23.57
2019-01-22T19:25:26.039Z,26.43
2019-01-22T19:27:54.588Z,22.40
2019-01-22T19:30:27.696Z,23.33
2019-01-22T19:32:56.129Z,25.63
2019-01-22T19:35:24.557Z,24.47
2019-01-22T19:37:52.987Z,24.50
2019-01-22T19:40:21.588Z,22.80
2019-01-22T19:42:50.340Z,22.17
2019-01-22T19:45:21.418Z,23.83
2019-01-22T19:47:49.829Z,24.27
2019-01-22T19:50:18.337Z,25.80
2019-01-22T19:52:46.740Z,23.30
2019-01-22T19:55:15.246Z,23.10
2019-01-22T19:57:48.358Z,21.80
2019-01-22T20:00:36.504Z,22.77
2019-01-22T20:03:06.257Z,21.80
2019-01-22T20:05:35.004Z,22.10
2019-01-22T20:08:03.551Z,22.50
2019-01-22T20:10:32.006Z,23.67
2019-01-22T20:13:00.423Z,22.17
2019-01-22T20:15:28.845Z,21.30
2019-01-22T20:17:57.278Z,22.83
2019-01-22T20:20:25.699Z,20.90
2019-01-22T20:22:54.121Z,21.47
2019-01-22T20:25:22.623Z,20.80
2019-01-22T20:27:51.053Z,22.10
2019-01-22T20:30:25.168Z,19.90
2019-01-22T20:32:53.604Z,21.53
2019-01-22T20:35:22.153Z,20.73
2019-01-22T20:37:50.582Z,20.30
2019-01-22T20:40:19.033Z,22.80
2019-01-22T20:42:47.467Z,21.90
2019-01-22T20:45:18.698Z,21.90
2019-01-22T20:47:47.118Z,23.60
2019-01-22T20:50:19.411Z,22.77
2019-01-22T20:52:46.145Z,22.40
2019-01-22T20:55:17.286Z,21.70
2019-01-22T20:57:45.730Z,21.43
2019-01-22T21:00:16.481Z,21.80
2019-01-22T21:02:45.046Z,21.97
2019-01-22T21:05:22.019Z,23.53
2019-01-22T21:07:50.784Z,21.63
2019-01-22T21:10:24.320Z,23.87
2019-01-22T21:12:52.749Z,21.83
2019-01-22T21:15:21.249Z,21.03
2019-01-22T21:17:49.668Z,22.27
2019-01-22T21:20:18.735Z,22.63
2019-01-22T21:22:48.322Z,22.73
2019-01-22T21:25:21.376Z,23.20
2019-01-22T21:27:49.806Z,22.30
2019-01-22T21:30:45.353Z,22.80
2019-01-22T21:33:13.780Z,23.07
2019-01-22T21:35:42.196Z,21.37
2019-01-22T21:38:10.709Z,23.43
2019-01-22T21:40:39.120Z,21.17
2019-01-22T21:43:07.553Z,23.27
2019-01-22T21:45:35.970Z,21.53
2019-01-22T21:48:04.833Z,22.63
2019-01-22T21:50:33.248Z,21.20
2019-01-22T21:53:01.688Z,22.30
2019-01-22T21:55:30.115Z,24.10
2019-01-22T21:57:58.550Z,21.93
2019-01-22T22:00:27.736Z,23.10
2019-01-22T22:02:56.299Z,21.77
2019-01-22T22:05:30.333Z,23.33
2019-01-22T22:07:59.071Z,25.00
2019-01-22T22:10:27.546Z,27.27
2019-01-22T22:12:55.977Z,23.97
2019-01-22T22:15:26.025Z,25.70
2019-01-22T22:17:54.523Z,25.73
2019-01-22T22:20:23.801Z,24.07
2019-01-22T22:22:52.257Z,25.20
2019-01-22T22:25:23.770Z,23.47
2019-01-22T22:27:52.191Z,22.30
2019-01-22T22:30:23.421Z,22.97
2019-01-22T22:32:51.853Z,21.10
2019-01-22T22:35:20.272Z,23.33
2019-01-22T22:37:48.711Z,22.47
2019-01-22T22:40:19.267Z,23.90
2019-01-22T22:42:47.693Z,24.80
2019-01-22T22:45:21.566Z,27.20
2019-01-22T22:47:50.068Z,30.90
2019-01-22T22:50:26.563Z,25.30
2019-01-22T22:52:54.976Z,25.53
2019-01-22T22:55:23.410Z,29.83
2019-01-22T22:57:52.797Z,26.27
2019-01-22T23:00:39.782Z,25.30
2019-01-22T23:03:08.366Z,24.20
2019-01-22T23:05:37.738Z,24.40
2019-01-22T23:08:06.243Z,25.63
2019-01-22T23:10:34.786Z,25.17
2019-01-22T23:13:03.400Z,25.73
2019-01-22T23:15:32.093Z,27.20
2019-01-22T23:18:00.607Z,26.40
2019-01-22T23:20:29.012Z,24.97
2019-01-22T23:22:57.437Z,26.03
2019-01-22T23:25:25.849Z,26.57
2019-01-22T23:27:54.286Z,27.00
2019-01-22T23:30:22.783Z,26.80
2019-01-22T23:32:51.289Z,26.30
2019-01-22T23:35:20.150Z,27.97
2019-01-22T23:37:48.591Z,29.50
2019-01-22T23:40:18.039Z,31.00
2019-01-22T23:42:46.479Z,26.20
2019-01-22T23:45:15.249Z,27.30
2019-01-22T23:47:43.684Z,26.60
2019-01-22T23:50:16.250Z,24.50
2019-01-22T23:52:46.625Z,21.13
2019-01-22T23:55:15.105Z,24.67
2019-01-22T23:57:43.853Z,28.17
